Time;durP1;ratioP1;P1;durP2;ratioP2;P2;SDS_P1;SDS_P2;PMS_P1;PMS_P2;Temp;Humidity;BMP_temperature;BMP_pressure;BME280_temperature;BME280_humidity;BME280_pressure;Samples;Min_cycle;Max_cycle;Signal;HPM_P1;HPM_P2
2023/03/07 00:00:41;;;;;;;19.38;12.27;;;3.90;99.90;;;;;;5054243;28;20114;-82
2023/03/07 00:03:13;;;;;;;19.50;12.50;;;3.90;99.90;;;;;;5071044;28;20044;-81
2023/03/07 00:05:39;;;;;;;20.40;12.05;;;3.90;99.90;;;;;;5070998;28;20052;-81
2023/03/07 00:08:05;;;;;;;20.40;12.18;;;3.90;99.90;;;;;;5071315;28;20041;-82
2023/03/07 00:10:30;;;;;;;17.58;10.50;;;3.80;99.90;;;;;;5069799;28;20535;-80
2023/03/07 00:12:56;;;;;;;17.58;10.93;;;3.90;99.90;;;;;;5068902;28;20056;-80
2023/03/07 00:15:22;;;;;;;15.25;9.43;;;3.80;99.90;;;;;;5058656;28;20118;-78
2023/03/07 00:17:48;;;;;;;13.48;9.07;;;3.90;99.90;;;;;;5058858;28;20492;-80
2023/03/07 00:20:14;;;;;;;13.68;8.15;;;3.90;99.90;;;;;;5048728;28;20064;-80
2023/03/07 00:22:41;;;;;;;11.57;6.85;;;3.90;99.90;;;;;;5062211;28;20095;-80
2023/03/07 00:25:07;;;;;;;10.20;6.05;;;3.90;99.90;;;;;;5067627;28;20056;-81
2023/03/07 00:27:33;;;;;;;9.63;5.57;;;3.80;99.90;;;;;;5051148;28;20064;-82
2023/03/07 00:30:00;;;;;;;9.50;5.65;;;3.90;99.90;;;;;;5064596;28;20077;-79
2023/03/07 00:32:26;;;;;;;10.13;6.05;;;3.90;99.90;;;;;;5074566;28;20048;-81
2023/03/07 00:34:54;;;;;;;9.70;5.75;;;3.90;99.90;;;;;;5057654;28;20112;-79
2023/03/07 00:37:21;;;;;;;9.45;5.07;;;3.90;99.90;;;;;;5059983;28;20074;-80
2023/03/07 00:39:47;;;;;;;8.60;4.13;;;3.90;99.90;;;;;;5073155;28;20055;-80
2023/03/07 00:42:13;;;;;;;7.47;3.70;;;3.90;99.90;;;;;;5057488;28;20477;-82
2023/03/07 00:44:39;;;;;;;6.50;3.50;;;3.90;99.90;;;;;;5065229;28;20450;-81
2023/03/07 00:47:05;;;;;;;7.30;3.75;;;3.90;99.90;;;;;;5056824;28;20076;-80
2023/03/07 00:49:30;;;;;;;6.40;3.22;;;3.90;99.90;;;;;;5055592;28;20135;-81
2023/03/07 00:51:56;;;;;;;6.63;2.85;;;3.90;99.90;;;;;;5065218;28;20060;-83
2023/03/07 00:54:22;;;;;;;7.18;3.22;;;3.90;99.90;;;;;;5059522;28;20511;-82
2023/03/07 00:56:47;;;;;;;5.93;2.90;;;3.50;99.90;;;;;;5073233;28;20059;-80
2023/03/07 00:59:14;;;;;;;6.20;2.50;;;3.90;99.90;;;;;;5056006;28;20045;-82
2023/03/07 01:01:40;;;;;;;6.38;3.10;;;3.90;99.90;;;;;;5060353;28;20484;-83
2023/03/07 01:04:05;;;;;;;6.80;3.17;;;3.90;99.90;;;;;;5061324;28;20052;-82
2023/03/07 01:06:32;;;;;;;5.97;2.72;;;3.90;99.90;;;;;;5067160;28;20051;-81
2023/03/07 01:09:04;;;;;;;6.80;2.65;;;3.90;99.90;;;;;;5053746;28;20095;-82
2023/03/07 01:11:30;;;;;;;6.30;1.98;;;3.90;99.90;;;;;;5069427;28;20098;-80
2023/03/07 01:14:03;;;;;;;5.47;1.80;;;3.90;99.90;;;;;;5074949;28;20056;-80
2023/03/07 01:16:34;;;;;;;6.15;1.60;;;4.00;99.90;;;;;;5073333;28;20053;-83
2023/03/07 01:19:03;;;;;;;5.95;1.52;;;3.90;99.90;;;;;;5063879;28;20111;-82
2023/03/07 01:21:35;;;;;;;5.53;1.45;;;3.90;99.90;;;;;;5067624;28;20037;-83
2023/03/07 01:24:00;;;;;;;4.35;1.52;;;3.90;99.90;;;;;;5062967;28;20129;-82
2023/03/07 01:26:29;;;;;;;5.93;1.83;;;3.90;99.90;;;;;;5072253;28;20044;-83
2023/03/07 01:28:57;;;;;;;5.45;1.70;;;3.90;99.90;;;;;;5073733;28;20052;-82
2023/03/07 01:31:23;;;;;;;4.80;1.50;;;3.90;99.90;;;;;;5073112;28;20048;-83
2023/03/07 01:33:51;;;;;;;5.72;1.90;;;3.90;99.90;;;;;;5053307;28;20044;-80
2023/03/07 01:36:28;;;;;;;6.43;1.80;;;3.80;99.90;;;;;;5073101;28;20048;-81
2023/03/07 01:39:01;;;;;;;6.57;1.63;;;3.80;99.90;;;;;;5072787;28;20395;-76
2023/03/07 01:41:30;;;;;;;4.38;1.80;;;3.90;99.90;;;;;;5072579;28;20476;-83
2023/03/07 01:43:57;;;;;;;5.55;1.70;;;3.90;99.90;;;;;;5068263;28;20099;-80
2023/03/07 01:46:32;;;;;;;5.43;1.77;;;3.90;99.90;;;;;;5064237;28;20044;-82
2023/03/07 01:49:10;;;;;;;6.05;1.77;;;3.90;99.90;;;;;;5059059;28;20052;-80
2023/03/07 01:51:39;;;;;;;6.50;1.90;;;3.90;99.90;;;;;;5065327;28;20045;-80
2023/03/07 01:54:08;;;;;;;6.03;1.90;;;3.90;99.90;;;;;;5066700;28;20454;-82
2023/03/07 01:56:36;;;;;;;5.75;1.80;;;3.90;99.90;;;;;;5052746;28;20055;-81
2023/03/07 01:59:02;;;;;;;7.90;1.98;;;3.80;99.90;;;;;;5069757;28;20070;-80
2023/03/07 02:01:28;;;;;;;5.82;1.83;;;3.90;99.90;;;;;;5066585;28;20049;-80
2023/03/07 02:04:01;;;;;;;6.07;1.70;;;3.90;99.90;;;;;;5044805;28;20053;-82
2023/03/07 02:06:30;;;;;;;5.13;1.52;;;3.80;99.90;;;;;;5070643;28;20059;-81
2023/03/07 02:08:59;;;;;;;6.00;1.70;;;3.80;99.90;;;;;;5069407;28;20507;-82
2023/03/07 02:11:25;;;;;;;7.38;1.90;;;3.70;99.90;;;;;;5069350;28;20088;-82
2023/03/07 02:13:51;;;;;;;9.27;2.10;;;3.60;99.90;;;;;;5068995;28;20049;-80
2023/03/07 02:16:17;;;;;;;5.43;1.73;;;3.70;99.90;;;;;;5066892;28;20059;-79
2023/03/07 02:18:45;;;;;;;8.02;1.80;;;3.60;99.90;;;;;;5060557;28;20056;-80
2023/03/07 02:21:32;;;;;;;5.07;1.60;;;3.50;99.90;;;;;;5055903;28;20045;-82
2023/03/07 02:23:58;;;;;;;9.73;1.73;;;3.50;99.90;;;;;;5072979;28;20044;-81
2023/03/07 02:26:29;;;;;;;7.32;1.80;;;3.50;99.90;;;;;;5066973;28;20381;-80
2023/03/07 02:28:59;;;;;;;7.35;1.73;;;3.40;99.90;;;;;;5036155;28;20048;-82
2023/03/07 02:31:25;;;;;;;6.72;1.80;;;3.40;99.90;;;;;;5070444;28;20385;-81
2023/03/07 02:33:51;;;;;;;8.10;1.60;;;3.40;99.90;;;;;;5071622;28;20511;-80
2023/03/07 02:36:27;;;;;;;7.40;1.88;;;3.30;99.90;;;;;;5068217;28;20087;-82
2023/03/07 02:38:55;;;;;;;6.50;1.42;;;3.30;99.90;;;;;;5072198;28;20118;-81
2023/03/07 02:41:26;;;;;;;5.93;1.65;;;3.30;99.90;;;;;;5071013;28;20040;-81
2023/03/07 02:43:52;;;;;;;8.02;1.90;;;3.40;99.90;;;;;;5063599;28;20061;-82
2023/03/07 02:46:19;;;;;;;7.57;1.50;;;3.40;99.90;;;;;;5066318;28;20412;-82
2023/03/07 02:48:45;;;;;;;8.90;1.90;;;3.30;99.90;;;;;;5055670;28;20053;-82
2023/03/07 02:51:11;;;;;;;7.35;1.70;;;3.30;99.90;;;;;;5056265;28;20048;-82
2023/03/07 02:53:37;;;;;;;9.18;1.85;;;3.30;99.90;;;;;;5062884;28;20048;-82
2023/03/07 02:56:04;;;;;;;6.65;1.60;;;3.30;99.90;;;;;;5066554;28;20516;-81
2023/03/07 02:58:30;;;;;;;6.53;1.90;;;3.20;99.90;;;;;;5063553;28;20052;-81
2023/03/07 03:00:56;;;;;;;8.05;1.77;;;3.20;99.90;;;;;;5049481;28;20048;-82
2023/03/07 03:03:21;;;;;;;5.82;1.67;;;3.10;99.90;;;;;;5072119;28;20051;-80
2023/03/07 03:05:47;;;;;;;9.98;1.77;;;3.20;99.90;;;;;;5072948;28;20056;-82
2023/03/07 03:08:13;;;;;;;10.52;1.95;;;3.20;99.90;;;;;;5066828;28;20562;-82
2023/03/07 03:10:40;;;;;;;7.50;1.77;;;3.10;99.90;;;;;;5050827;28;20069;-82
2023/03/07 03:13:06;;;;;;;7.65;1.80;;;3.10;99.90;;;;;;5066626;28;20076;-81
2023/03/07 03:15:32;;;;;;;8.45;1.80;;;3.20;99.90;;;;;;5060442;28;20484;-81
2023/03/07 03:17:57;;;;;;;10.82;1.90;;;3.10;99.90;;;;;;5056551;28;20473;-81
2023/03/07 03:20:24;;;;;;;8.95;1.90;;;3.10;99.90;;;;;;5065328;28;20484;-81
2023/03/07 03:22:51;;;;;;;11.88;1.90;;;3.10;99.90;;;;;;5048541;28;20041;-82
2023/03/07 03:25:19;;;;;;;10.25;1.95;;;3.10;99.90;;;;;;5076684;28;20053;-80
2023/03/07 03:27:45;;;;;;;9.05;2.00;;;3.00;99.90;;;;;;5083690;28;20405;-80
2023/03/07 03:30:12;;;;;;;9.93;1.88;;;3.10;99.90;;;;;;5071222;28;20110;-80
2023/03/07 03:32:39;;;;;;;8.90;1.90;;;3.20;99.90;;;;;;5035135;28;20033;-81
2023/03/07 03:35:06;;;;;;;9.18;1.65;;;3.10;99.90;;;;;;5063372;28;20040;-82
2023/03/07 03:37:32;;;;;;;10.00;1.92;;;3.10;99.90;;;;;;5035088;28;20055;-80
2023/03/07 03:39:58;;;;;;;8.80;1.77;;;3.10;99.90;;;;;;5070758;28;20048;-78
2023/03/07 03:42:24;;;;;;;10.20;2.00;;;3.10;99.90;;;;;;5069487;28;20052;-79
2023/03/07 03:44:50;;;;;;;6.32;1.40;;;3.30;99.90;;;;;;5057002;28;20063;-79
2023/03/07 03:47:16;;;;;;;10.93;1.77;;;3.10;99.90;;;;;;5071050;28;20480;-81
2023/03/07 03:49:42;;;;;;;9.82;1.85;;;3.10;99.90;;;;;;5050264;28;20106;-80
2023/03/07 03:52:08;;;;;;;9.98;1.70;;;3.10;99.90;;;;;;5043784;28;20041;-82
2023/03/07 03:54:34;;;;;;;11.60;1.90;;;3.00;99.90;;;;;;5051860;28;20045;-81
2023/03/07 03:56:59;;;;;;;9.70;1.60;;;3.00;99.90;;;;;;5065077;28;20124;-81
2023/03/07 03:59:25;;;;;;;9.55;1.60;;;3.00;99.90;;;;;;5067325;28;20049;-81
2023/03/07 04:01:53;;;;;;;8.80;1.60;;;3.00;99.90;;;;;;5071307;28;20526;-80
2023/03/07 04:04:20;;;;;;;9.85;1.50;;;3.00;99.90;;;;;;5057812;28;20048;-80
2023/03/07 04:06:45;;;;;;;7.03;1.58;;;3.00;99.90;;;;;;5057938;28;20052;-81
2023/03/07 04:09:11;;;;;;;11.25;1.73;;;3.00;99.90;;;;;;5067704;28;20123;-79
2023/03/07 04:11:37;;;;;;;9.30;1.85;;;3.00;99.90;;;;;;5053648;28;20076;-78
2023/03/07 04:14:03;;;;;;;11.45;1.77;;;3.00;99.90;;;;;;5054921;28;20060;-79
2023/03/07 04:16:28;;;;;;;9.25;1.70;;;3.00;99.90;;;;;;5071709;28;20059;-82
2023/03/07 04:18:54;;;;;;;10.48;1.65;;;3.00;99.90;;;;;;5065142;28;20086;-80
2023/03/07 04:21:21;;;;;;;8.88;1.60;;;3.00;99.90;;;;;;5055953;28;20135;-81
2023/03/07 04:23:49;;;;;;;7.07;1.42;;;3.10;99.90;;;;;;5067200;28;20124;-79
2023/03/07 04:26:15;;;;;;;7.55;1.60;;;3.00;99.90;;;;;;5045190;28;20056;-81
2023/03/07 04:28:45;;;;;;;10.73;1.73;;;3.00;99.90;;;;;;5058844;28;20040;-79
2023/03/07 04:31:17;;;;;;;11.25;1.70;;;3.00;99.90;;;;;;5074352;28;20045;-79
2023/03/07 04:33:43;;;;;;;11.32;1.90;;;3.00;99.90;;;;;;5057478;28;20048;-78
2023/03/07 04:36:09;;;;;;;14.60;1.60;;;2.90;99.90;;;;;;5074256;28;20079;-80
2023/03/07 04:38:37;;;;;;;10.07;1.65;;;3.00;99.90;;;;;;5060380;28;20128;-79
2023/03/07 04:41:04;;;;;;;10.25;1.65;;;2.90;99.90;;;;;;5073634;28;20444;-78
2023/03/07 04:43:30;;;;;;;9.57;1.52;;;2.90;99.90;;;;;;5073992;28;20092;-80
2023/03/07 04:45:56;;;;;;;10.05;1.67;;;2.90;99.90;;;;;;5074464;28;20076;-80
2023/03/07 04:48:22;;;;;;;11.23;1.80;;;2.80;99.90;;;;;;5074234;28;20056;-79
2023/03/07 04:50:50;;;;;;;9.65;1.60;;;2.80;99.90;;;;;;5074504;28;20353;-78
2023/03/07 04:53:16;;;;;;;12.73;1.80;;;2.90;99.90;;;;;;5074242;28;20052;-81
2023/03/07 04:55:42;;;;;;;13.40;1.85;;;2.80;99.90;;;;;;5072810;28;20067;-79
2023/03/07 04:58:11;;;;;;;10.90;1.65;;;2.80;99.90;;;;;;5066501;28;20182;-81
2023/03/07 05:00:39;;;;;;;11.55;1.88;;;2.90;99.90;;;;;;5053608;28;20084;-79
2023/03/07 05:03:06;;;;;;;10.63;1.80;;;2.80;99.90;;;;;;5057802;28;20423;-79
2023/03/07 05:05:32;;;;;;;11.00;2.05;;;2.80;99.90;;;;;;5073679;28;20114;-79
2023/03/07 05:07:57;;;;;;;10.50;1.83;;;2.80;99.90;;;;;;5056630;28;20087;-80
2023/03/07 05:10:23;;;;;;;10.23;1.70;;;2.80;99.90;;;;;;5073578;28;20048;-79
2023/03/07 05:12:49;;;;;;;9.93;1.77;;;2.90;99.90;;;;;;5059465;28;20052;-79
2023/03/07 05:15:15;;;;;;;11.63;1.67;;;2.80;99.90;;;;;;5074191;28;20123;-79
2023/03/07 05:17:40;;;;;;;8.80;1.60;;;2.80;99.90;;;;;;5060521;28;20099;-78
2023/03/07 05:20:09;;;;;;;13.40;1.90;;;2.80;99.90;;;;;;5066171;28;20123;-78
2023/03/07 05:22:35;;;;;;;13.15;1.90;;;2.90;99.90;;;;;;5057141;28;20048;-79
2023/03/07 05:25:00;;;;;;;8.20;1.60;;;2.90;99.90;;;;;;5039183;28;20047;-79
2023/03/07 05:27:26;;;;;;;9.77;1.60;;;2.90;99.90;;;;;;5072381;28;20087;-80
2023/03/07 05:29:52;;;;;;;10.88;1.83;;;2.90;99.90;;;;;;5065493;28;20084;-80
2023/03/07 05:32:19;;;;;;;11.43;1.67;;;2.90;99.90;;;;;;5067697;28;20044;-78
2023/03/07 05:34:45;;;;;;;9.30;1.60;;;2.90;99.90;;;;;;5062516;28;20040;-81
2023/03/07 05:37:11;;;;;;;11.77;1.90;;;2.90;99.90;;;;;;5070312;28;20056;-79
2023/03/07 05:39:37;;;;;;;12.88;1.92;;;2.90;99.90;;;;;;5068946;28;20048;-78
2023/03/07 05:42:03;;;;;;;12.57;1.83;;;2.90;99.90;;;;;;5072211;28;20052;-78
2023/03/07 05:44:29;;;;;;;11.23;1.70;;;3.00;99.90;;;;;;5059692;28;20048;-79
2023/03/07 05:46:55;;;;;;;12.98;1.88;;;2.90;99.90;;;;;;5073377;28;20521;-79
2023/03/07 05:49:21;;;;;;;10.77;2.00;;;2.90;99.90;;;;;;5058934;28;20575;-79
2023/03/07 05:51:46;;;;;;;10.02;1.60;;;2.90;99.90;;;;;;5072595;28;20041;-79
2023/03/07 05:54:12;;;;;;;12.25;2.00;;;2.90;99.90;;;;;;5061498;28;20135;-80
2023/03/07 05:56:38;;;;;;;9.68;1.70;;;2.90;99.90;;;;;;5053616;28;20119;-79
2023/03/07 05:59:06;;;;;;;7.90;1.42;;;2.90;99.90;;;;;;5053817;28;20059;-79
2023/03/07 06:01:32;;;;;;;8.32;1.63;;;2.90;99.90;;;;;;5064538;28;20109;-79
2023/03/07 06:03:58;;;;;;;11.18;1.77;;;2.90;99.90;;;;;;5072988;28;20045;-77
2023/03/07 06:06:24;;;;;;;12.82;1.60;;;2.90;99.90;;;;;;5072544;28;20226;-81
2023/03/07 06:08:51;;;;;;;9.02;1.70;;;2.90;99.90;;;;;;5052667;28;20045;-78
2023/03/07 06:11:17;;;;;;;10.45;1.80;;;2.90;99.90;;;;;;5070362;28;20168;-78
2023/03/07 06:13:43;;;;;;;9.15;1.42;;;2.90;99.90;;;;;;5068277;28;20135;-79
2023/03/07 06:16:08;;;;;;;11.77;1.80;;;2.90;99.90;;;;;;5069149;28;20116;-79
2023/03/07 06:18:34;;;;;;;10.75;1.90;;;2.90;99.90;;;;;;5070038;28;20123;-78
2023/03/07 06:21:05;;;;;;;12.43;1.65;;;2.80;99.90;;;;;;5068943;28;20063;-78
2023/03/07 06:23:33;;;;;;;8.45;1.40;;;2.80;99.90;;;;;;5068565;28;20080;-78
2023/03/07 06:25:59;;;;;;;10.85;1.70;;;2.90;99.90;;;;;;5067981;28;20072;-78
2023/03/07 06:28:25;;;;;;;10.43;1.40;;;2.90;99.90;;;;;;5058636;28;20049;-78
2023/03/07 06:30:51;;;;;;;11.05;1.65;;;2.80;99.90;;;;;;5067992;28;20079;-78
2023/03/07 06:33:18;;;;;;;9.50;1.45;;;2.90;99.90;;;;;;5071002;28;20048;-78
2023/03/07 06:35:44;;;;;;;13.95;1.63;;;3.00;99.90;;;;;;5052249;28;20055;-79
2023/03/07 06:38:11;;;;;;;8.05;1.50;;;2.90;99.90;;;;;;5066984;28;20048;-78
2023/03/07 06:40:37;;;;;;;9.98;1.58;;;2.90;99.90;;;;;;5065116;28;20056;-79
2023/03/07 06:43:03;;;;;;;10.65;1.80;;;2.90;99.90;;;;;;5064248;28;20041;-77
2023/03/07 06:45:28;;;;;;;10.10;1.45;;;3.00;99.90;;;;;;5066799;28;20052;-78
2023/03/07 06:47:54;;;;;;;12.02;1.92;;;3.10;99.90;;;;;;5044669;28;20124;-78
2023/03/07 06:50:20;;;;;;;12.32;2.03;;;3.10;99.90;;;;;;5040802;28;20044;-78
2023/03/07 06:52:47;;;;;;;9.63;1.92;;;3.10;99.90;;;;;;5070803;28;20512;-79
2023/03/07 06:55:13;;;;;;;9.30;1.60;;;3.10;99.90;;;;;;5056776;28;20114;-78
2023/03/07 06:57:38;;;;;;;8.73;1.67;;;3.10;99.90;;;;;;5039289;28;20476;-77
2023/03/07 07:00:05;;;;;;;10.98;1.73;;;3.10;99.90;;;;;;5071571;28;20044;-79
2023/03/07 07:02:31;;;;;;;8.75;1.40;;;3.10;99.90;;;;;;5052836;28;20119;-77
2023/03/07 07:04:57;;;;;;;11.25;1.42;;;3.10;99.90;;;;;;5060441;28;20128;-79
2023/03/07 07:07:26;;;;;;;6.22;1.20;;;3.20;99.90;;;;;;5071775;28;20059;-78
2023/03/07 07:09:51;;;;;;;9.82;1.67;;;3.10;99.90;;;;;;5064332;28;20151;-78
2023/03/07 07:12:17;;;;;;;9.55;1.50;;;3.10;99.90;;;;;;5051213;28;20128;-78
2023/03/07 07:14:43;;;;;;;10.25;1.50;;;3.10;99.90;;;;;;5056245;28;20070;-78
2023/03/07 07:17:09;;;;;;;9.38;1.70;;;3.10;99.90;;;;;;5062232;28;20489;-78
2023/03/07 07:19:35;;;;;;;8.20;1.25;;;3.10;99.90;;;;;;5051143;28;20048;-79
2023/03/07 07:22:01;;;;;;;9.70;1.58;;;3.00;99.90;;;;;;5069239;28;20060;-80
2023/03/07 07:24:27;;;;;;;8.80;1.52;;;2.90;99.90;;;;;;5055958;28;20044;-79
2023/03/07 07:26:54;;;;;;;8.63;1.63;;;2.90;99.90;;;;;;5054363;28;20064;-79
2023/03/07 07:29:20;;;;;;;8.45;1.27;;;2.90;99.90;;;;;;5071229;28;20112;-78
2023/03/07 07:31:46;;;;;;;7.68;1.50;;;2.80;99.90;;;;;;5072371;28;20049;-79
2023/03/07 07:34:12;;;;;;;11.48;1.70;;;2.80;99.90;;;;;;5060193;28;20083;-78
2023/03/07 07:36:37;;;;;;;8.60;1.60;;;2.90;99.90;;;;;;5070960;28;20049;-79
2023/03/07 07:39:04;;;;;;;10.00;1.77;;;2.80;99.90;;;;;;5076454;28;20072;-78
2023/03/07 07:41:31;;;;;;;11.00;1.63;;;2.80;99.90;;;;;;5053788;28;20139;-79
2023/03/07 07:43:57;;;;;;;10.50;1.70;;;2.90;99.90;;;;;;5067432;28;20056;-79
2023/03/07 07:46:23;;;;;;;9.63;1.50;;;2.90;99.90;;;;;;5063443;28;20049;-78
2023/03/07 07:48:49;;;;;;;11.25;1.50;;;2.90;99.90;;;;;;5070200;28;20056;-78
2023/03/07 07:51:15;;;;;;;8.68;1.75;;;2.90;99.90;;;;;;5062434;28;20040;-78
2023/03/07 07:53:41;;;;;;;10.27;1.83;;;2.30;99.90;;;;;;5060755;28;20497;-78
2023/03/07 07:56:07;;;;;;;12.75;2.10;;;3.00;99.90;;;;;;5054049;28;20041;-78
2023/03/07 07:58:33;;;;;;;11.82;1.95;;;3.00;99.90;;;;;;5075911;28;20599;-79
2023/03/07 08:00:59;;;;;;;9.77;1.70;;;3.00;99.90;;;;;;5053945;28;20127;-78
2023/03/07 08:03:25;;;;;;;9.82;1.98;;;3.00;99.90;;;;;;5065078;28;20362;-78
2023/03/07 08:05:51;;;;;;;10.70;2.00;;;3.20;99.90;;;;;;5059642;28;20098;-78
2023/03/07 08:08:18;;;;;;;11.18;2.15;;;3.10;99.90;;;;;;5044557;28;20423;-79
2023/03/07 08:10:47;;;;;;;12.38;2.28;;;3.10;99.90;;;;;;5056370;28;20037;-80
2023/03/07 08:13:15;;;;;;;10.18;2.10;;;3.20;99.90;;;;;;5046653;28;20084;-79
2023/03/07 08:15:41;;;;;;;11.65;2.10;;;3.20;99.90;;;;;;5063081;28;20114;-80
2023/03/07 08:18:09;;;;;;;7.57;1.58;;;3.20;99.90;;;;;;5062440;28;20076;-78
2023/03/07 08:20:36;;;;;;;11.13;1.73;;;3.30;99.90;;;;;;5058014;28;20056;-79
2023/03/07 08:23:03;;;;;;;11.43;2.03;;;3.30;99.90;;;;;;5041839;28;20056;-79
2023/03/07 08:25:29;;;;;;;9.95;1.90;;;3.30;99.90;;;;;;5052106;28;20114;-78
2023/03/07 08:27:55;;;;;;;8.05;1.80;;;3.30;99.90;;;;;;5054009;28;20388;-78
2023/03/07 08:30:23;;;;;;;9.15;1.70;;;3.40;99.90;;;;;;5061149;28;20052;-77
2023/03/07 08:32:50;;;;;;;10.55;1.80;;;3.40;99.90;;;;;;5048541;28;20123;-78
2023/03/07 08:35:16;;;;;;;7.40;1.48;;;3.40;99.90;;;;;;5059249;28;20056;-80
2023/03/07 08:37:42;;;;;;;10.60;1.80;;;3.40;99.90;;;;;;5057731;28;20061;-79
2023/03/07 08:40:08;;;;;;;7.68;1.60;;;3.40;99.90;;;;;;5057504;28;20036;-78
2023/03/07 08:42:34;;;;;;;8.10;1.85;;;3.50;99.90;;;;;;5035165;28;20045;-78
2023/03/07 08:45:00;;;;;;;11.07;1.67;;;3.50;99.90;;;;;;5051754;28;20124;-78
2023/03/07 08:47:25;;;;;;;11.05;1.90;;;3.50;99.90;;;;;;5044541;28;20460;-79
2023/03/07 08:49:51;;;;;;;6.97;1.65;;;3.60;99.90;;;;;;5046238;28;20037;-78
2023/03/07 08:52:17;;;;;;;9.18;1.50;;;3.60;99.90;;;;;;5055667;28;20095;-77
2023/03/07 08:54:43;;;;;;;10.43;1.90;;;3.60;99.90;;;;;;5058712;28;20049;-77
2023/03/07 08:57:08;;;;;;;7.25;1.85;;;3.60;99.90;;;;;;5056656;28;20053;-78
2023/03/07 08:59:34;;;;;;;11.98;2.05;;;3.70;99.90;;;;;;5055434;28;20480;-78
2023/03/07 09:02:00;;;;;;;10.68;1.80;;;3.70;99.90;;;;;;5057218;28;20052;-78
2023/03/07 09:04:25;;;;;;;9.05;1.85;;;3.60;99.90;;;;;;5062875;28;20121;-78
2023/03/07 09:06:51;;;;;;;9.75;1.83;;;3.70;99.90;;;;;;5038785;28;20473;-77
2023/03/07 09:09:17;;;;;;;9.32;1.77;;;3.70;99.90;;;;;;5052595;28;20078;-77
2023/03/07 09:11:43;;;;;;;8.45;2.10;;;3.80;99.90;;;;;;5045187;28;20053;-77
2023/03/07 09:14:09;;;;;;;8.95;1.60;;;4.00;99.90;;;;;;5030207;28;20067;-78
2023/03/07 09:16:34;;;;;;;8.32;1.73;;;3.80;99.90;;;;;;5056860;28;20056;-79
2023/03/07 09:19:00;;;;;;;11.27;2.00;;;3.80;99.90;;;;;;5053559;28;20049;-78
2023/03/07 09:21:26;;;;;;;8.65;1.70;;;3.90;99.90;;;;;;5064444;28;20068;-77
2023/03/07 09:23:52;;;;;;;11.05;1.65;;;3.90;99.90;;;;;;5058009;28;20049;-77
2023/03/07 09:26:17;;;;;;;8.70;1.83;;;4.00;99.90;;;;;;5028084;28;20055;-77
2023/03/07 09:28:43;;;;;;;7.72;1.63;;;3.90;99.90;;;;;;5070650;28;20052;-77
2023/03/07 09:31:11;;;;;;;10.02;1.80;;;4.00;99.90;;;;;;5082631;28;20041;-77
2023/03/07 09:33:37;;;;;;;9.60;2.05;;;4.10;99.90;;;;;;5066938;28;20061;-77
2023/03/07 09:36:08;;;;;;;10.98;2.15;;;4.10;99.90;;;;;;5063511;28;20044;-77
2023/03/07 09:38:34;;;;;;;8.48;1.65;;;4.10;99.90;;;;;;5064998;28;20053;-77
2023/03/07 09:41:30;;;;;;;8.27;1.75;;;4.20;99.90;;;;;;5065720;28;20071;-77
2023/03/07 09:44:33;;;;;;;9.80;2.00;;;4.20;99.90;;;;;;5069614;28;20178;-77
2023/03/07 09:47:09;;;;;;;12.38;1.83;;;4.30;99.90;;;;;;5065991;28;20040;-78
2023/03/07 09:49:51;;;;;;;9.15;1.95;;;4.30;99.90;;;;;;5066714;28;20060;-78
2023/03/07 09:52:24;;;;;;;11.75;2.20;;;4.40;99.90;;;;;;5065569;28;20488;-78
2023/03/07 09:54:59;;;;;;;8.60;2.20;;;4.50;99.90;;;;;;5050297;28;20400;-78
2023/03/07 09:57:31;;;;;;;9.93;2.20;;;4.50;99.90;;;;;;5065865;28;20110;-78
2023/03/07 10:00:24;;;;;;;8.57;1.88;;;4.50;99.90;;;;;;5070395;28;20052;-78
2023/03/07 10:03:27;;;;;;;10.18;1.80;;;4.40;99.90;;;;;;5065179;28;20048;-77
2023/03/07 10:05:58;;;;;;;11.63;1.95;;;4.40;99.90;;;;;;5064976;28;20586;-77
2023/03/07 10:08:32;;;;;;;11.82;2.03;;;4.40;99.90;;;;;;5082106;28;20120;-77
2023/03/07 10:11:07;;;;;;;9.20;1.80;;;4.30;99.90;;;;;;5066328;28;20538;-77
2023/03/07 10:14:02;;;;;;;7.60;1.63;;;4.20;99.90;;;;;;5070384;28;20496;-78
2023/03/07 10:17:01;;;;;;;5.78;1.23;;;4.00;99.90;;;;;;5069968;28;20051;-77
2023/03/07 10:19:37;;;;;;;7.38;1.40;;;3.70;99.90;;;;;;5063322;28;20146;-78
2023/03/07 10:22:35;;;;;;;5.63;1.30;;;3.40;99.90;;;;;;5071417;28;20056;-77
2023/03/07 10:25:10;;;;;;;5.97;1.20;;;3.20;99.90;;;;;;5051472;28;20068;-78
2023/03/07 10:27:37;;;;;;;7.60;1.20;;;3.00;99.90;;;;;;5050420;28;20102;-78
2023/03/07 10:30:15;;;;;;;5.00;1.00;;;2.90;99.90;;;;;;5051380;28;20405;-77
2023/03/07 10:32:53;;;;;;;6.25;1.15;;;2.80;99.90;;;;;;5069256;28;20048;-77
2023/03/07 10:35:23;;;;;;;5.53;1.10;;;2.70;99.90;;;;;;5066784;28;20051;-78
2023/03/07 10:38:10;;;;;;;5.40;1.00;;;2.70;99.90;;;;;;5049966;28;20036;-78
2023/03/07 10:41:14;;;;;;;7.80;2.55;;;2.70;99.90;;;;;;5067309;28;20489;-78
2023/03/07 10:43:41;;;;;;;8.68;2.10;;;2.70;99.90;;;;;;5026121;28;20369;-78
2023/03/07 10:46:17;;;;;;;8.73;1.63;;;2.80;99.90;;;;;;5064231;28;20045;-78
2023/03/07 10:48:47;;;;;;;9.73;1.50;;;2.90;99.90;;;;;;5063172;28;20052;-78
2023/03/07 10:51:42;;;;;;;6.55;1.23;;;3.10;99.90;;;;;;5063923;28;20408;-79
2023/03/07 10:54:14;;;;;;;7.68;1.20;;;3.30;99.90;;;;;;5069376;28;20052;-79
2023/03/07 10:56:40;;;;;;;8.77;1.48;;;3.40;99.90;;;;;;5061529;28;20403;-79
2023/03/07 10:59:08;;;;;;;9.13;1.80;;;3.60;99.90;;;;;;5064797;28;20049;-81
2023/03/07 11:01:36;;;;;;;9.20;1.40;;;3.70;99.90;;;;;;5063700;28;20124;-81
2023/03/07 11:04:04;;;;;;;6.65;1.45;;;3.80;99.90;;;;;;5066331;28;20139;-82
2023/03/07 11:06:49;;;;;;;10.30;1.50;;;3.90;99.90;;;;;;5067377;28;20051;-82
2023/03/07 11:09:32;;;;;;;7.63;1.45;;;4.00;99.90;;;;;;5065133;28;20443;-82
2023/03/07 11:12:04;;;;;;;5.50;1.50;;;4.10;99.90;;;;;;5064985;28;20460;-82
2023/03/07 11:15:07;;;;;;;6.00;1.40;;;4.20;99.90;;;;;;5061163;28;20226;-82
2023/03/07 11:17:47;;;;;;;6.03;1.27;;;4.20;99.90;;;;;;5065095;28;20538;-80
2023/03/07 11:21:04;;;;;;;5.25;1.20;;;4.10;99.90;;;;;;5061530;28;20052;-80
2023/03/07 11:23:30;;;;;;;5.28;1.17;;;4.20;99.90;;;;;;5020772;28;20052;-79
2023/03/07 11:26:20;;;;;;;5.97;1.20;;;4.20;99.90;;;;;;5061201;28;20045;-79
2023/03/07 11:28:45;;;;;;;7.57;1.35;;;4.30;99.90;;;;;;5058420;28;20049;-79
2023/03/07 11:31:26;;;;;;;6.20;1.40;;;4.30;99.90;;;;;;5068243;28;20442;-79
2023/03/07 11:34:10;;;;;;;6.35;1.27;;;4.40;99.90;;;;;;5043848;28;20075;-77
2023/03/07 11:36:38;;;;;;;6.25;1.40;;;4.50;99.90;;;;;;5057638;28;20048;-79
2023/03/07 11:39:20;;;;;;;6.95;1.40;;;4.70;99.90;;;;;;5049377;28;20086;-79
2023/03/07 11:41:53;;;;;;;8.85;1.40;;;4.80;99.90;;;;;;5065867;28;20106;-79
2023/03/07 11:44:52;;;;;;;6.55;1.42;;;4.90;99.90;;;;;;5066571;28;20071;-81
2023/03/07 11:47:39;;;;;;;7.90;1.50;;;5.00;99.90;;;;;;5065628;28;20057;-80
2023/03/07 11:50:16;;;;;;;8.00;1.50;;;5.00;99.90;;;;;;5056954;28;20400;-79
2023/03/07 11:53:20;;;;;;;7.82;1.50;;;5.10;99.90;;;;;;5059882;28;20044;-81
2023/03/07 11:55:56;;;;;;;7.35;1.55;;;5.30;99.90;;;;;;5056124;28;20139;-82
2023/03/07 11:58:40;;;;;;;7.03;1.67;;;5.40;99.90;;;;;;5061691;28;20064;-82
2023/03/07 12:01:29;;;;;;;13.00;1.70;;;5.60;99.90;;;;;;5065410;28;20076;-80
2023/03/07 12:04:10;;;;;;;7.88;1.42;;;5.70;99.90;;;;;;5026747;28;20165;-80
2023/03/07 12:06:48;;;;;;;9.07;1.63;;;5.60;99.90;;;;;;5065443;28;20472;-81
2023/03/07 12:09:28;;;;;;;6.53;1.67;;;5.50;99.90;;;;;;5066580;28;20047;-82
2023/03/07 12:12:16;;;;;;;7.97;1.40;;;5.30;99.90;;;;;;5062945;28;20452;-81
2023/03/07 12:14:57;;;;;;;5.38;1.00;;;5.10;99.90;;;;;;5063919;28;20538;-80
2023/03/07 12:17:34;;;;;;;4.30;1.10;;;4.80;99.90;;;;;;5063965;28;20577;-81
2023/03/07 12:20:09;;;;;;;2.55;0.90;;;4.60;99.90;;;;;;5065015;28;20765;-81
2023/03/07 12:22:53;;;;;;;6.90;1.10;;;4.40;99.90;;;;;;5058923;28;20401;-80
2023/03/07 12:25:30;;;;;;;5.43;1.00;;;4.30;99.90;;;;;;5062033;28;20049;-79
2023/03/07 12:28:14;;;;;;;5.85;1.05;;;4.10;99.90;;;;;;5069804;28;20045;-80
2023/03/07 12:30:52;;;;;;;5.88;1.10;;;4.10;99.90;;;;;;5070356;28;20041;-81
2023/03/07 12:33:56;;;;;;;5.90;1.17;;;4.10;99.90;;;;;;5067384;28;20044;-81
2023/03/07 12:36:41;;;;;;;5.88;1.20;;;4.10;99.90;;;;;;5069858;28;20378;-79
2023/03/07 12:39:43;;;;;;;5.72;1.30;;;4.10;99.90;;;;;;5059897;28;20043;-82
2023/03/07 12:42:35;;;;;;;4.47;1.10;;;4.10;99.90;;;;;;5060640;28;20045;-81
2023/03/07 12:45:14;;;;;;;6.88;1.23;;;4.20;99.90;;;;;;5070399;28;20131;-82
2023/03/07 12:47:58;;;;;;;6.90;1.42;;;4.20;99.90;;;;;;5045161;28;20058;-80
2023/03/07 12:50:48;;;;;;;5.93;1.30;;;4.20;99.90;;;;;;5051793;28;20047;-80
2023/03/07 12:53:34;;;;;;;11.82;1.70;;;4.30;99.90;;;;;;5050892;28;20107;-80
2023/03/07 12:56:06;;;;;;;9.27;1.40;;;4.30;99.90;;;;;;5064048;28;20043;-79
2023/03/07 12:59:01;;;;;;;9.75;1.38;;;4.30;99.90;;;;;;5059046;28;20102;-79
2023/03/07 13:01:31;;;;;;;8.88;1.40;;;4.30;99.90;;;;;;5055372;28;20636;-80
2023/03/07 13:04:13;;;;;;;7.65;1.50;;;4.30;99.90;;;;;;5060820;28;20059;-81
2023/03/07 13:06:40;;;;;;;;;;;4.30;99.90;;;;;;5057032;28;20170;-80
2023/03/07 13:09:12;;;;;;;11.13;1.83;;;4.40;99.90;;;;;;5061457;28;20276;-80